createdAt,value
2023-03-08T00:00:21.494Z,98495.63
2023-03-08T00:03:14.500Z,98499.05
2023-03-08T00:05:42.568Z,98498.14
2023-03-08T00:08:10.378Z,98497.48
2023-03-08T00:10:38.535Z,98503.77
2023-03-08T00:13:07.099Z,98507.88
2023-03-08T00:15:38.060Z,98503.36
2023-03-08T00:18:06.518Z,98505.98
2023-03-08T00:20:34.304Z,98502.16
2023-03-08T00:23:01.997Z,98499.38
2023-03-08T00:25:29.792Z,98500.91
2023-03-08T00:27:57.623Z,98504.23
2023-03-08T00:30:25.696Z,98503.41
2023-03-08T00:32:55.994Z,98507.43
2023-03-08T00:35:23.666Z,98513.30
2023-03-08T00:37:51.526Z,98514.27
2023-03-08T01:02:59.907Z,98503.83
2023-03-08T01:06:10.045Z,98509.64
2023-03-08T01:08:55.481Z,98514.77
2023-03-08T01:11:27.097Z,98510.86
2023-03-08T01:13:55.263Z,98508.59
2023-03-08T01:16:29.693Z,98515.85
2023-03-08T01:19:00.884Z,98514.17
2023-03-08T01:21:30.748Z,98510.56
2023-03-08T01:23:59.795Z,98510.62
2023-03-08T01:26:29.297Z,98512.09
2023-03-08T01:28:57.766Z,98510.14
2023-03-08T01:31:28.244Z,98508.83
2023-03-08T01:33:57.843Z,98512.84
2023-03-08T01:36:26.891Z,98515.08
2023-03-08T01:38:55.112Z,98515.37
2023-03-08T01:41:26.490Z,98513.02
2023-03-08T01:43:55.401Z,98514.70
2023-03-08T01:46:28.018Z,98513.21
2023-03-08T01:49:15.797Z,98514.56
2023-03-08T01:52:09.694Z,98508.83
2023-03-08T01:54:49.986Z,98503.35
2023-03-08T01:57:23.704Z,98503.83
2023-03-08T01:59:56.835Z,98501.64
2023-03-08T02:02:31.505Z,98500.71
2023-03-08T02:04:59.226Z,98505.23
2023-03-08T02:07:27.307Z,98505.88
2023-03-08T02:09:55.136Z,98503.50
2023-03-08T02:12:23.488Z,98507.41
2023-03-08T02:14:51.174Z,98509.85
2023-03-08T02:17:19.314Z,98513.29
2023-03-08T02:19:55.900Z,98513.48
2023-03-08T02:22:24.378Z,98516.96
2023-03-08T02:24:52.030Z,98522.05
2023-03-08T02:27:28.401Z,98529.51
2023-03-08T02:29:56.082Z,98527.63
2023-03-08T02:32:23.858Z,98526.52
2023-03-08T02:34:51.669Z,98522.38
2023-03-08T02:37:19.412Z,98520.25
2023-03-08T02:39:48.829Z,98520.42
2023-03-08T02:42:16.605Z,98521.11
2023-03-08T02:44:44.266Z,98522.09
2023-03-08T02:47:11.954Z,98524.90
2023-03-08T02:49:39.778Z,98526.34
2023-03-08T02:52:10.083Z,98532.67
2023-03-08T02:54:37.757Z,98524.04
2023-03-08T02:57:05.493Z,98530.09
2023-03-08T02:59:33.417Z,98531.11
2023-03-08T03:02:01.155Z,98536.91
2023-03-08T03:04:32.300Z,98540.95
2023-03-08T03:07:00.937Z,98536.30
2023-03-08T03:09:29.614Z,98534.76
2023-03-08T03:11:57.530Z,98539.84
2023-03-08T03:14:28.256Z,98545.77
2023-03-08T03:16:56.638Z,98549.68
2023-03-08T03:19:24.371Z,98551.73
2023-03-08T03:21:52.074Z,98550.80
2023-03-08T03:24:19.973Z,98559.40
2023-03-08T03:26:56.662Z,98556.10
2023-03-08T03:29:25.793Z,98556.27
2023-03-08T03:31:58.064Z,98560.26
2023-03-08T03:34:25.839Z,98571.27
2023-03-08T03:36:53.622Z,98582.50
2023-03-08T03:39:21.429Z,98579.31
2023-03-08T03:41:49.320Z,98575.80
2023-03-08T03:44:17.259Z,98577.88
2023-03-08T03:46:45.652Z,98585.30
2023-03-08T03:49:15.311Z,98593.88
2023-03-08T03:51:44.377Z,98591.45
2023-03-08T03:54:19.242Z,98599.50
2023-03-08T03:56:47.389Z,98599.40
2023-03-08T03:59:15.263Z,98598.94
2023-03-08T04:01:43.178Z,98601.23
2023-03-08T04:04:17.184Z,98599.30
2023-03-08T04:06:45.425Z,98609.05
2023-03-08T04:09:16.933Z,98608.97
2023-03-08T04:11:46.516Z,98607.63
2023-03-08T04:14:17.771Z,98605.61
2023-03-08T04:16:45.516Z,98604.75
2023-03-08T04:19:23.801Z,98607.48
2023-03-08T04:21:54.077Z,98607.52
2023-03-08T04:24:24.149Z,98610.46
2023-03-08T04:26:54.326Z,98613.52
2023-03-08T04:29:22.588Z,98618.05
2023-03-08T04:31:50.320Z,98619.58
2023-03-08T04:34:19.403Z,98625.98
2023-03-08T04:36:48.780Z,98626.46
2023-03-08T04:39:16.850Z,98626.20
2023-03-08T04:41:45.067Z,98629.45
2023-03-08T04:44:19.944Z,98624.67
2023-03-08T04:46:49.061Z,98627.05
2023-03-08T04:49:21.555Z,98630.70
2023-03-08T04:51:53.112Z,98629.14
2023-03-08T04:54:21.155Z,98623.77
2023-03-08T04:56:53.547Z,98625.58
2023-03-08T04:59:23.736Z,98627.96
2023-03-08T05:01:51.829Z,98626.96
2023-03-08T05:04:20.350Z,98625.42
2023-03-08T05:06:48.172Z,98623.64
2023-03-08T05:09:20.129Z,98630.81
2023-03-08T05:11:49.209Z,98634.86
2023-03-08T05:14:17.408Z,98638.96
2023-03-08T05:16:45.852Z,98640.86
2023-03-08T05:19:14.103Z,98648.55
2023-03-08T05:21:48.002Z,98650.67
2023-03-08T05:24:15.659Z,98658.27
2023-03-08T05:26:43.479Z,98664.48
2023-03-08T05:29:11.707Z,98677.14
2023-03-08T05:31:40.154Z,98675.05
2023-03-08T05:34:10.622Z,98679.68
2023-03-08T05:36:38.484Z,98679.35
2023-03-08T05:39:08.408Z,98678.44
2023-03-08T05:41:51.347Z,98683.41
2023-03-08T05:44:25.114Z,98693.01
2023-03-08T05:46:53.617Z,98698.41
2023-03-08T05:49:21.772Z,98705.75
2023-03-08T05:51:50.627Z,98710.05
2023-03-08T05:54:18.459Z,98711.55
2023-03-08T05:56:47.360Z,98718.52
2023-03-08T05:59:25.296Z,98723.48
2023-03-08T06:01:53.227Z,98728.64
2023-03-08T06:04:26.873Z,98735.20
2023-03-08T06:06:57.657Z,98736.85
2023-03-08T06:09:28.874Z,98737.84
2023-03-08T06:11:56.852Z,98742.63
2023-03-08T06:14:25.003Z,98744.85
2023-03-08T06:16:53.115Z,98754.50
2023-03-08T06:19:21.931Z,98757.04
2023-03-08T06:21:51.191Z,98761.11
2023-03-08T06:24:19.248Z,98766.85
2023-03-08T06:26:47.605Z,98767.54
2023-03-08T06:29:16.316Z,98777.77
2023-03-08T06:31:44.181Z,98772.17
2023-03-08T06:34:12.970Z,98782.66
2023-03-08T06:36:40.951Z,98791.59
2023-03-08T06:39:09.960Z,98789.06
2023-03-08T06:41:37.961Z,98794.08
2023-03-08T06:44:06.562Z,98800.33
2023-03-08T06:46:34.270Z,98801.90
2023-03-08T06:49:03.945Z,98805.95
2023-03-08T06:51:33.888Z,98808.58
2023-03-08T06:54:01.676Z,98812.00
2023-03-08T06:56:29.668Z,98811.42
2023-03-08T06:58:58.228Z,98813.70
2023-03-08T07:01:26.084Z,98813.34
2023-03-08T07:03:53.863Z,98819.32
2023-03-08T07:06:21.474Z,98821.48
2023-03-08T07:08:49.188Z,98826.83
2023-03-08T07:11:16.831Z,98834.92
2023-03-08T07:13:44.595Z,98837.35
2023-03-08T07:16:13.735Z,98848.67
2023-03-08T07:18:41.763Z,98848.91
2023-03-08T07:21:10.330Z,98848.31
2023-03-08T07:23:38.204Z,98849.26
2023-03-08T07:26:07.580Z,98849.23
2023-03-08T07:28:35.819Z,98852.18
2023-03-08T07:31:03.602Z,98853.55
2023-03-08T07:33:31.344Z,98854.63
2023-03-08T07:36:02.259Z,98856.59
2023-03-08T07:38:30.238Z,98856.09
2023-03-08T07:40:58.026Z,98855.89
2023-03-08T07:43:26.041Z,98859.46
2023-03-08T07:46:02.543Z,98861.08
2023-03-08T07:48:32.099Z,98867.08
2023-03-08T07:51:09.409Z,98871.04
2023-03-08T07:53:37.770Z,98870.38
2023-03-08T07:56:06.247Z,98872.87
2023-03-08T07:58:34.194Z,98875.04
2023-03-08T08:01:02.065Z,98873.98
2023-03-08T08:03:29.997Z,98874.13
2023-03-08T08:06:02.226Z,98876.86
2023-03-08T08:08:30.087Z,98879.90
2023-03-08T08:10:58.529Z,98882.23
2023-03-08T08:13:26.463Z,98884.40
2023-03-08T08:15:59.620Z,98886.98
2023-03-08T08:18:28.340Z,98886.46
2023-03-08T08:21:05.426Z,98894.53
2023-03-08T08:23:36.339Z,98894.93
2023-03-08T08:26:09.719Z,98895.50
2023-03-08T08:28:39.981Z,98893.35
2023-03-08T08:31:14.416Z,98892.59
2023-03-08T08:33:42.698Z,98894.45
2023-03-08T08:36:16.814Z,98891.77
2023-03-08T08:38:46.191Z,98900.88
2023-03-08T08:41:16.278Z,98901.73
2023-03-08T08:43:45.640Z,98901.98
2023-03-08T08:46:14.232Z,98901.27
2023-03-08T08:48:43.018Z,98902.86
2023-03-08T08:51:13.061Z,98901.73
2023-03-08T08:53:41.078Z,98906.71
2023-03-08T08:56:25.655Z,98907.29
2023-03-08T08:59:00.483Z,98906.83
2023-03-08T09:01:31.015Z,98911.45
2023-03-08T09:03:59.474Z,98912.08
2023-03-08T09:06:28.412Z,98912.54
2023-03-08T09:08:58.820Z,98910.27
2023-03-08T09:11:28.040Z,98916.77
2023-03-08T09:13:56.048Z,98920.96
2023-03-08T09:16:25.594Z,98919.72
2023-03-08T09:18:56.272Z,98923.21
2023-03-08T09:21:25.632Z,98921.02
2023-03-08T09:23:53.840Z,98914.58
2023-03-08T09:26:21.732Z,98913.09
2023-03-08T09:28:49.461Z,98909.86
2023-03-08T09:31:18.320Z,98912.40
2023-03-08T09:33:48.776Z,98915.81
2023-03-08T09:36:16.582Z,98916.62
2023-03-08T09:38:46.589Z,98910.66
2023-03-08T09:41:32.376Z,98911.95
2023-03-08T09:44:09.327Z,98908.33
2023-03-08T09:46:42.871Z,98904.84
2023-03-08T09:49:16.741Z,98908.65
2023-03-08T09:51:49.041Z,98908.73
2023-03-08T09:54:21.961Z,98909.25
2023-03-08T09:56:52.274Z,98911.64
2023-03-08T09:59:35.043Z,98908.42
2023-03-08T10:02:17.144Z,98913.83
2023-03-08T10:04:59.595Z,98915.25
2023-03-08T10:07:55.263Z,98909.46
2023-03-08T10:10:47.253Z,98907.50
2023-03-08T10:13:21.099Z,98905.32
2023-03-08T10:15:51.952Z,98911.45
2023-03-08T10:18:35.933Z,98914.15
2023-03-08T10:21:03.975Z,98907.45
2023-03-08T10:23:35.293Z,98908.45
2023-03-08T10:26:09.542Z,98909.60
2023-03-08T10:28:37.823Z,98907.98
2023-03-08T10:31:19.043Z,98907.59
2023-03-08T10:33:49.270Z,98909.07
2023-03-08T10:36:20.318Z,98905.06
2023-03-08T10:39:08.561Z,98907.77
2023-03-08T10:41:37.651Z,98906.62
2023-03-08T10:44:05.716Z,98911.60
2023-03-08T10:46:33.979Z,98910.80
2023-03-08T10:49:18.187Z,98909.83
2023-03-08T10:52:00.357Z,98914.60
2023-03-08T10:54:29.426Z,98913.11
2023-03-08T10:57:02.311Z,98915.63
2023-03-08T10:59:34.598Z,98921.11
2023-03-08T11:02:15.484Z,98914.79
2023-03-08T11:04:53.667Z,98918.12
2023-03-08T11:07:26.115Z,98923.40
2023-03-08T11:10:14.893Z,98926.89
2023-03-08T11:12:43.798Z,98927.38
2023-03-08T11:15:20.621Z,98925.70
2023-03-08T11:17:54.467Z,98920.13
2023-03-08T11:20:28.594Z,98915.44
2023-03-08T11:23:15.449Z,98913.78
2023-03-08T11:25:48.511Z,98911.11
2023-03-08T11:28:28.538Z,98909.97
2023-03-08T11:31:08.876Z,98903.94
2023-03-08T11:34:08.948Z,98899.28
2023-03-08T11:37:02.554Z,98899.91
2023-03-08T11:39:34.056Z,98893.92
2023-03-08T11:42:21.598Z,98891.38
2023-03-08T11:45:30.936Z,98888.30
2023-03-08T11:48:16.963Z,98882.05
2023-03-08T11:50:53.707Z,98875.55
2023-03-08T11:53:37.348Z,98877.05
2023-03-08T11:56:28.629Z,98875.23
2023-03-08T11:59:11.380Z,98871.61
2023-03-08T12:01:47.517Z,98870.02
2023-03-08T12:04:34.040Z,98880.02
2023-03-08T12:07:08.080Z,98876.98
2023-03-08T12:09:58.897Z,98881.29
2023-03-08T12:12:43.972Z,98888.05
2023-03-08T12:15:24.399Z,98887.95
2023-03-08T12:17:57.635Z,98891.84
2023-03-08T12:20:31.589Z,98892.22
2023-03-08T12:23:25.551Z,98887.08
2023-03-08T12:26:13.195Z,98887.71
2023-03-08T12:28:49.193Z,98885.52
2023-03-08T12:31:30.095Z,98885.80
2023-03-08T12:34:00.026Z,98888.57
2023-03-08T12:36:43.982Z,98888.55
2023-03-08T12:39:35.458Z,98889.70
2023-03-08T12:42:09.275Z,98888.66
2023-03-08T12:44:38.715Z,98891.76
2023-03-08T12:47:13.188Z,98887.66
2023-03-08T12:49:47.444Z,98884.33
2023-03-08T12:52:18.485Z,98886.33
2023-03-08T12:55:09.115Z,98882.98
2023-03-08T12:57:46.053Z,98882.56
2023-03-08T13:00:20.174Z,98885.36
2023-03-08T13:03:03.036Z,98879.27
2023-03-08T13:05:32.821Z,98878.17
2023-03-08T13:08:12.918Z,98880.71
2023-03-08T13:10:49.881Z,98875.85
2023-03-08T13:13:35.286Z,98873.39
2023-03-08T13:16:23.042Z,98877.16
2023-03-08T13:19:02.296Z,98881.34
2023-03-08T13:21:36.470Z,98880.42
2023-03-08T13:24:43.184Z,98880.06
2023-03-08T13:27:21.717Z,98869.05
2023-03-08T13:29:49.706Z,98875.85
2023-03-08T13:32:21.367Z,98861.84
2023-03-08T13:35:01.418Z,98856.10
2023-03-08T13:37:30.171Z,98857.25
2023-03-08T13:40:00.621Z,98858.83
2023-03-08T13:42:29.570Z,98849.12
2023-03-08T13:45:16.149Z,98850.18
2023-03-08T13:47:46.484Z,98848.67
2023-03-08T13:50:45.455Z,98846.00
2023-03-08T13:53:25.668Z,98835.84
2023-03-08T13:55:57.011Z,98836.94
2023-03-08T13:58:40.311Z,98835.77
2023-03-08T14:01:18.726Z,98837.63
2023-03-08T14:03:47.362Z,98840.58
2023-03-08T14:06:23.992Z,98836.36
2023-03-08T14:08:53.586Z,98835.08
2023-03-08T14:11:24.878Z,98828.54
2023-03-08T14:13:54.938Z,98827.77
2023-03-08T14:16:31.485Z,98830.59
2023-03-08T14:19:09.604Z,98831.60
2023-03-08T14:21:37.838Z,98824.14
2023-03-08T14:24:10.341Z,98818.35
2023-03-08T14:26:40.281Z,98817.96
2023-03-08T14:29:11.116Z,98820.98
2023-03-08T14:31:39.846Z,98817.15
2023-03-08T14:34:22.803Z,98815.04
2023-03-08T14:36:58.461Z,98813.02
2023-03-08T14:39:30.803Z,98810.54
2023-03-08T14:42:08.038Z,98811.21
2023-03-08T14:44:37.517Z,98808.39
2023-03-08T14:47:11.045Z,98802.34
2023-03-08T14:49:38.865Z,98799.75
2023-03-08T14:52:20.227Z,98798.44
2023-03-08T14:54:47.905Z,98791.82
2023-03-08T14:57:22.981Z,98790.87
2023-03-08T14:59:51.495Z,98787.95
2023-03-08T15:02:19.354Z,98786.97
2023-03-08T15:04:47.949Z,98789.13
2023-03-08T15:07:22.945Z,98789.89
2023-03-08T15:09:51.770Z,98784.80
2023-03-08T15:12:19.575Z,98783.28
2023-03-08T15:14:47.377Z,98785.73
2023-03-08T15:17:15.138Z,98780.91
2023-03-08T15:19:43.262Z,98784.30
2023-03-08T15:22:14.025Z,98781.33
2023-03-08T15:24:41.848Z,98782.69
2023-03-08T15:27:16.337Z,98780.20
2023-03-08T15:29:44.051Z,98778.64
2023-03-08T15:32:11.993Z,98775.95
2023-03-08T15:34:40.792Z,98775.14
2023-03-08T15:37:14.328Z,98770.08
2023-03-08T15:39:43.132Z,98763.58
2023-03-08T15:42:10.931Z,98766.68
2023-03-08T15:44:38.798Z,98770.39
2023-03-08T15:47:06.680Z,98768.45
2023-03-08T15:49:35.162Z,98765.88
2023-03-08T15:52:02.878Z,98762.25
2023-03-08T15:54:32.328Z,98766.89
2023-03-08T15:57:00.144Z,98769.25
2023-03-08T15:59:27.807Z,98770.02
2023-03-08T16:01:55.589Z,98769.70
2023-03-08T16:04:23.312Z,98768.80
2023-03-08T16:06:51.162Z,98773.95
2023-03-08T16:09:18.945Z,98778.85
2023-03-08T16:11:48.195Z,98781.96
2023-03-08T16:14:17.872Z,98776.83
2023-03-08T16:16:46.218Z,98777.95
2023-03-08T16:19:14.059Z,98779.27
2023-03-08T16:21:41.921Z,98779.56
2023-03-08T16:24:11.021Z,98780.55
2023-03-08T16:26:38.773Z,98782.03
2023-03-08T16:29:06.731Z,98785.85
2023-03-08T16:31:35.686Z,98782.81
2023-03-08T16:34:04.412Z,98777.06
2023-03-08T16:36:33.280Z,98774.17
2023-03-08T16:39:01.568Z,98777.79
2023-03-08T16:41:30.087Z,98781.16
2023-03-08T16:43:58.161Z,98780.70
2023-03-08T16:46:26.272Z,98774.08
2023-03-08T16:48:55.956Z,98772.56
2023-03-08T16:51:26.531Z,98776.15
2023-03-08T16:53:54.910Z,98777.06
2023-03-08T16:56:28.164Z,98773.69
2023-03-08T16:58:58.453Z,98771.71
2023-03-08T17:01:26.756Z,98770.07
2023-03-08T17:03:56.499Z,98768.58
2023-03-08T17:06:25.535Z,98766.18
2023-03-08T17:08:53.295Z,98762.20
2023-03-08T17:11:23.802Z,98764.83
2023-03-08T17:13:55.348Z,98764.05
2023-03-08T17:16:26.198Z,98759.01
2023-03-08T17:18:55.075Z,98762.39
2023-03-08T17:21:23.101Z,98764.09
2023-03-08T17:23:52.261Z,98764.46
2023-03-08T17:26:21.460Z,98766.09
2023-03-08T17:28:50.722Z,98765.56
2023-03-08T17:31:21.178Z,98764.16
2023-03-08T17:33:49.539Z,98766.48
2023-03-08T17:36:17.888Z,98766.58
2023-03-08T17:38:46.195Z,98765.80
2023-03-08T17:41:15.557Z,98766.03
2023-03-08T17:43:43.375Z,98767.02
2023-03-08T17:46:18.076Z,98771.34
2023-03-08T17:48:46.242Z,98768.77
2023-03-08T17:51:18.116Z,98765.71
2023-03-08T17:53:47.016Z,98759.99
2023-03-08T17:56:17.835Z,98756.89
2023-03-08T17:58:45.649Z,98755.09
2023-03-08T18:01:14.906Z,98755.23
2023-03-08T18:03:42.800Z,98752.98
2023-03-08T18:06:24.857Z,98749.02
2023-03-08T18:08:52.931Z,98754.02
2023-03-08T18:11:20.755Z,98747.23
2023-03-08T18:13:48.871Z,98751.05
2023-03-08T18:16:16.839Z,98747.66
2023-03-08T18:18:49.773Z,98742.87
2023-03-08T18:21:19.194Z,98743.10
2023-03-08T18:23:47.804Z,98740.80
2023-03-08T18:26:17.471Z,98742.66
2023-03-08T18:28:45.342Z,98738.86
2023-03-08T18:31:23.107Z,98740.79
2023-03-08T18:33:54.681Z,98741.21
2023-03-08T18:36:23.985Z,98742.98
2023-03-08T18:38:52.176Z,98741.64
2023-03-08T18:41:27.096Z,98739.80
2023-03-08T18:43:56.694Z,98736.19
2023-03-08T18:46:29.151Z,98735.63
2023-03-08T18:49:08.841Z,98729.16
2023-03-08T18:51:38.545Z,98725.60
2023-03-08T18:54:09.294Z,98723.70
2023-03-08T18:56:37.356Z,98725.89
2023-03-08T18:59:07.066Z,98726.88
2023-03-08T19:01:36.020Z,98728.36
2023-03-08T19:04:06.300Z,98719.02
2023-03-08T19:06:37.509Z,98712.23
2023-03-08T19:09:13.733Z,98709.45
2023-03-08T19:11:42.572Z,98708.90
2023-03-08T19:14:15.550Z,98710.08
2023-03-08T19:16:43.911Z,98704.98
2023-03-08T19:19:14.627Z,98700.73
2023-03-08T19:21:44.803Z,98694.63
2023-03-08T19:24:14.243Z,98695.15
2023-03-08T19:26:46.845Z,98691.30
2023-03-08T19:29:22.767Z,98688.91
2023-03-08T19:31:50.374Z,98684.55
2023-03-08T19:34:29.972Z,98676.40
2023-03-08T19:36:58.472Z,98671.95
2023-03-08T19:39:29.877Z,98668.31
2023-03-08T19:42:00.393Z,98666.20
2023-03-08T19:44:29.801Z,98665.45
2023-03-08T19:46:57.936Z,98662.20
2023-03-08T19:49:31.968Z,98663.12
2023-03-08T19:52:02.024Z,98651.77
2023-03-08T19:54:31.088Z,98652.61
2023-03-08T19:56:59.766Z,98649.31
2023-03-08T19:59:27.496Z,98645.25
2023-03-08T20:01:55.976Z,98645.83
2023-03-08T20:04:24.258Z,98636.66
2023-03-08T20:06:52.553Z,98628.31
2023-03-08T20:09:21.700Z,98628.41
2023-03-08T20:11:57.710Z,98624.85
2023-03-08T20:14:27.722Z,98627.61
2023-03-08T20:16:56.340Z,98624.79
2023-03-08T20:19:24.234Z,98623.88
2023-03-08T20:21:52.086Z,98618.56
2023-03-08T20:24:19.801Z,98614.19
2023-03-08T20:26:47.657Z,98617.48
2023-03-08T20:29:15.631Z,98614.81
2023-03-08T20:31:44.010Z,98614.77
2023-03-08T20:34:11.708Z,98609.95
2023-03-08T20:36:39.560Z,98606.04
2023-03-08T20:39:07.413Z,98604.42
2023-03-08T20:41:35.355Z,98600.23
2023-03-08T20:44:03.250Z,98595.70
2023-03-08T20:46:33.306Z,98593.55
2023-03-08T20:49:01.718Z,98588.27
2023-03-08T20:51:29.719Z,98590.98
2023-03-08T20:53:57.585Z,98585.17
2023-03-08T20:56:26.532Z,98577.55
2023-03-08T20:58:56.632Z,98575.50
2023-03-08T21:01:30.268Z,98572.85
2023-03-08T21:03:58.045Z,98568.63
2023-03-08T21:06:30.224Z,98563.13
2023-03-08T21:08:59.488Z,98563.00
2023-03-08T21:11:28.035Z,98562.93
2023-03-08T21:13:56.433Z,98560.59
2023-03-08T21:16:27.096Z,98555.05
2023-03-08T21:18:57.509Z,98552.34
2023-03-08T21:21:30.145Z,98549.05
2023-03-08T21:24:00.100Z,98545.13
2023-03-08T21:26:29.311Z,98543.80
2023-03-08T21:29:04.195Z,98544.21
2023-03-08T21:31:37.581Z,98537.73
2023-03-08T21:34:06.603Z,98529.66
2023-03-08T21:36:36.488Z,98525.23
2023-03-08T21:39:05.534Z,98528.92
2023-03-08T21:41:35.729Z,98525.49
2023-03-08T21:44:09.462Z,98522.30
2023-03-08T21:46:38.818Z,98518.48
2023-03-08T21:49:07.936Z,98513.10
2023-03-08T21:51:37.086Z,98508.16
2023-03-08T21:54:06.029Z,98506.08
2023-03-08T21:56:35.789Z,98505.23
2023-03-08T21:59:03.973Z,98502.75
2023-03-08T22:01:32.907Z,98502.73
2023-03-08T22:04:02.282Z,98497.81
2023-03-08T22:06:30.454Z,98493.80
2023-03-08T22:08:58.531Z,98488.42
2023-03-08T22:11:26.591Z,98486.77
2023-03-08T22:13:57.640Z,98490.04
2023-03-08T22:16:27.233Z,98485.35
2023-03-08T22:19:00.695Z,98484.34
2023-03-08T22:21:29.008Z,98486.61
2023-03-08T22:23:59.180Z,98485.02
2023-03-08T22:26:28.714Z,98486.33
2023-03-08T22:28:57.293Z,98484.77
2023-03-08T22:31:27.182Z,98487.50
2023-03-08T22:33:55.193Z,98491.81
2023-03-08T22:36:23.341Z,98491.39
2023-03-08T22:38:51.195Z,98488.95
2023-03-08T22:41:22.288Z,98490.35
2023-03-08T22:43:50.954Z,98487.21
2023-03-08T22:46:22.018Z,98485.83
2023-03-08T22:48:50.695Z,98479.54
2023-03-08T22:51:21.236Z,98474.98
2023-03-08T22:53:49.572Z,98474.14
2023-03-08T22:56:23.623Z,98471.56
2023-03-08T22:58:52.025Z,98472.13
2023-03-08T23:01:21.763Z,98472.71
2023-03-08T23:03:52.639Z,98470.52
2023-03-08T23:06:20.722Z,98473.52
2023-03-08T23:08:48.372Z,98472.71
2023-03-08T23:11:17.104Z,98467.41
2023-03-08T23:13:44.904Z,98465.36
2023-03-08T23:16:14.685Z,98462.30
2023-03-08T23:18:43.078Z,98455.23
2023-03-08T23:21:14.069Z,98452.55
2023-03-08T23:37:32.270Z,98433.97
2023-03-08T23:40:00.114Z,98428.13
2023-03-08T23:42:27.798Z,98425.11
2023-03-08T23:44:55.538Z,98430.77
2023-03-08T23:47:23.187Z,98435.70
2023-03-08T23:49:51.706Z,98438.15
2023-03-08T23:52:21.101Z,98444.54
2023-03-08T23:54:48.911Z,98451.52
2023-03-08T23:57:16.566Z,98451.16
2023-03-08T23:59:44.263Z,98457.27
